Alpine (355, 357, 358, 1458) Station Data

Red Flag Warning: No
Fire Weather Zone: 250
SDGE Region: Eastern
Lat/Lon: 32.827/-116.773

Observations

Time Wind Speed/Gust Temp(F) RH Fuel Moist Fuel Temp(F) Dewpt(F) Tmax(F) Tmin(F) Accum Precip 10-min Precip SL Press(mb)
5/24 8:30am 224 2 G 5 73° 31% - - 41° 74° 55.8° - - -
5/24 8:20am 84 2 G 5 73° 29% - - 39° 73.7° 55.8° - - -
5/24 8:10am 91 2 G 7 71° 33% - - 41° 72.4° 55.8° - - -
5/24 8:00am 350 1 G 3 68° 43% - - 45° 70° 55.8° - - -
5/24 7:50am 112 1 G 4 66° 46% - - 44° 66.7° 55.8° - - -
5/24 7:40am 121 3 G 7 64° 50% - - 45° 65.1° 55.8° - - -
5/24 7:30am 128 3 G 7 63° 54% - - 46° 65.1° 55.8° - - -
5/24 7:20am 79 0 G 2 60° 66% - - 49° 65.1° 55.8° - - -
5/24 7:10am 71 2 G 8 58° 74% - - 50° 65.1° 55.8° - - -
5/24 7:00am 87 3 G 5 56° 79% - - 50° 65.1° 55.8° - - -
5/24 6:50am 166 2 G 6 58° 69% - - 48° 65.1° 56.6° - - -
5/24 6:40am 275 2 G 6 61° 50% - - 42° 65.1° 57.1° - - -
5/24 6:30am 359 0 G 2 62° 43% - - 40° 65.1° 57.1° - - -
5/24 6:20am 262 1 G 4 63° 39% - - 38° 65.1° 57.1° - - -
5/24 6:10am 265 1 G 2 62° 40% - - 38° 65.1° 57.1° - - -
5/24 6:00am 278 0 G 1 62° 39% - - 37° 65.1° 57.1° - - -
5/24 5:50am 331 0 G 2 63° 38% - - 37° 65.1° 57.1° - - -
5/24 5:40am 44 2 G 6 64° 35% - - 36° 65.1° 57.1° - - -
5/24 5:30am 81 1 G 4 64° 36% - - 36° 65.1° 57.1° - - -
5/24 5:20am 120 3 G 6 63° 37% - - 37° 65.1° 57.1° - - -
5/24 5:10am 81 0 G 3 61° 42% - - 38° 65.1° 57.1° - - -
5/24 5:00am 179 0 G 1 60° 46% - - 39° 65.1° 57.1° - - -
5/24 4:50am 175 0 G 1 59° 49% - - 40° 65.1° 57.1° - - -
5/24 4:40am 102 0 G 2 58° 51% - - 40° 65.1° 57.1° - - -
5/24 4:30am 184 0 G 1 58° 53% - - 41° 65.1° 57.1° - - -
5/24 4:20am 167 0 G 1 58° 56% - - 42° 65.1° 57.1° - - -
5/24 4:10am 209 0 G 1 57° 59% - - 43° 65.1° 57.1° - - -
5/24 4:00am 0 0 G 0 58° 57% - - 43° 65.1° 57.4° - - -
5/24 3:50am 159 0 G 1 59° 55% - - 43° 65.1° 58.7° - - -
5/24 3:40am 137 1 G 2 60° 53% - - 42° 65.1° 58.7° - - -
5/24 3:30am 144 1 G 2 60° 51% - - 42° 65.1° 59.8° - - -
5/24 3:20am 143 0 G 1 61° 50% - - 42° 65.1° 60° - - -
5/24 3:10am 88 1 G 3 62° 47% - - 41° 65.1° 61° - - -
5/24 3:00am 139 0 G 1 62° 49% - - 42° 65.1° 61° - - -
5/24 2:50am 237 0 G 1 62° 48% - - 42° 65.1° 61° - - -
5/24 2:40am 216 1 G 2 62° 50% - - 43° 65.1° 61° - - -
5/24 2:30am 136 0 G 1 62° 51% - - 44° 65.1° 61° - - -
5/24 2:20am 152 0 G 1 62° 53% - - 45° 65.1° 61° - - -
5/24 2:10am 299 0 G 1 62° 55% - - 46° 65.1° 61° - - -
5/24 2:00am 230 0 G 1 62° 58% - - 47° 65.1° 61° - - -
5/24 1:50am 167 0 G 1 62° 59% - - 48° 65.1° 61° - - -
5/24 1:40am 176 0 G 1 63° 57% - - 47° 65.1° 61° - - -
5/24 1:30am 144 0 G 1 63° 56% - - 47° 65.1° 61° - - -
5/24 1:20am 258 0 G 1 64° 55% - - 47° 65.1° 61° - - -
5/24 1:10am 236 0 G 1 64° 55% - - 48° 65.1° 61° - - -
5/24 1:00am 78 1 G 3 65° 55% - - 48° 65.1° 61° - - -
5/24 12:50am 100 1 G 4 65° 57% - - 49° 65.1° 61° - - -
5/24 12:40am 117 1 G 4 62° 64% - - 50° 64.6° 61° - - -
5/24 12:30am 0 0 G 0 61° 68% - - 50° 62.3° 61° - - -
5/24 12:20am 57 1 G 2 61° 67% - - 50° 62.3° 61° - - -
5/24 12:10am 53 0 G 1 62° 66% - - 50° 62.3° 61.3° - - -
5/24 12:00am 50 0 G 2 63° 63% - - 51° 87.8° 59.3° - - -
5/23 11:50pm 138 0 G 1 64° 62% - - 51° 87.8° 59.3° - - -
5/23 11:40pm 207 1 G 2 64° 63% - - 52° 87.8° 59.3° - - -
5/23 11:30pm 145 1 G 2 64° 64% - - 52° 87.8° 59.3° - - -
5/23 11:20pm 123 0 G 1 64° 64% - - 52° 87.8° 59.3° - - -
5/23 11:10pm 0 0 G 0 65° 64% - - 52° 87.8° 59.3° - - -
5/23 11:00pm 105 0 G 1 65° 63% - - 52° 87.8° 59.3° - - -
5/23 10:50pm 78 1 G 2 65° 64% - - 53° 87.8° 59.3° - - -
5/23 10:40pm 195 0 G 1 65° 65% - - 53° 87.8° 59.3° - - -
5/23 10:30pm 163 0 G 1 65° 64% - - 53° 87.8° 59.3° - - -
5/23 10:20pm 113 0 G 1 65° 65% - - 53° 87.8° 59.3° - - -
5/23 10:10pm 262 0 G 0 65° 64% - - 53° 87.8° 59.3° - - -
5/23 10:00pm 259 0 G 0 66° 62% - - 53° 87.8° 59.3° - - -
5/23 9:50pm 161 0 G 1 67° 61% - - 53° 87.8° 59.3° - - -
5/23 9:40pm 141 1 G 1 67° 60% - - 53° 87.8° 59.3° - - -
5/23 9:30pm 119 0 G 1 68° 59% - - 53° 87.8° 59.3° - - -
5/23 9:20pm 159 0 G 1 68° 59% - - 53° 87.8° 59.3° - - -
5/23 9:10pm 0 0 G 0 68° 58% - - 53° 87.8° 59.3° - - -
5/23 9:00pm 163 0 G 1 69° 57% - - 53° 87.8° 59.3° - - -
5/23 8:50pm 0 0 G 0 69° 56% - - 53° 87.8° 59.3° - - -
5/23 8:40pm 0 0 G 0 70° 55% - - 53° 87.8° 59.3° - - -
5/23 8:30pm 219 0 G 0 71° 52% - - 53° 87.8° 59.3° - - -
5/23 8:20pm 263 0 G 0 72° 51% - - 52° 87.8° 59.3° - - -
5/23 8:10pm 258 0 G 1 73° 48% - - 52° 87.8° 59.3° - - -
5/23 8:00pm 313 0 G 1 74° 47% - - 52° 87.8° 59.3° - - -
5/23 7:50pm 229 0 G 1 75° 45% - - 52° 87.8° 59.3° - - -
5/23 7:40pm 6 1 G 3 76° 42% - - 51° 87.8° 59.3° - - -
5/23 7:30pm 297 1 G 4 77° 40% - - 50° 87.8° 59.3° - - -
5/23 7:20pm 308 1 G 3 77° 39% - - 50° 87.8° 59.3° - - -
5/23 7:10pm 319 2 G 5 77° 38% - - 50° 87.8° 59.3° - - -
5/23 7:00pm 276 2 G 4 78° 39% - - 51° 87.8° 59.3° - - -
5/23 6:50pm 246 2 G 4 78° 38% - - 51° 87.8° 59.3° - - -
5/23 6:40pm 269 3 G 6 78° 39% - - 51° 87.8° 59.3° - - -
5/23 6:30pm 260 3 G 7 79° 36% - - 50° 87.8° 59.3° - - -
5/23 6:20pm 272 3 G 7 80° 34% - - 49° 87.8° 59.3° - - -
5/23 6:10pm 255 3 G 8 82° 31% - - 48° 87.8° 59.3° - - -
5/23 6:00pm 307 4 G 9 83° 28% - - 47° 87.8° 59.3° - - -
5/23 5:50pm 288 4 G 7 83° 29% - - 48° 87.8° 59.3° - - -
5/23 5:40pm 291 4 G 9 84° 29% - - 48° 87.8° 59.3° - - -
5/23 5:30pm 288 4 G 7 84° 30% - - 49° 87.8° 59.3° - - -
5/23 5:20pm 297 4 G 7 84° 30% - - 49° 87.8° 59.3° - - -
5/23 5:10pm 291 3 G 8 84° 30% - - 49° 87.8° 59.3° - - -
5/23 5:00pm 302 3 G 6 83° 31% - - 50° 87.8° 59.3° - - -
5/23 4:50pm 296 3 G 7 83° 31% - - 50° 87.8° 59.3° - - -
5/23 4:40pm 302 3 G 6 82° 31% - - 49° 87.8° 59.3° - - -
5/23 4:30pm 299 3 G 8 82° 31% - - 49° 87.8° 59.3° - - -
5/23 4:20pm 276 5 G 9 81° 29% - - 47° 87.8° 59.3° - - -
5/23 4:10pm 283 5 G 11 82° 27% - - 45° 87.8° 59.3° - - -
5/23 4:00pm 285 5 G 11 82° 26% - - 44° 87.8° 59.3° - - -
5/23 3:50pm 279 4 G 9 82° 32% - - 48° 87.8° 59.3° - - -
5/23 3:40pm 270 4 G 10 81° 34% - - 50° 87.8° 59.3° - - -
5/23 3:30pm 276 4 G 10 81° 35% - - 50° 87.8° 59.3° - - -
5/23 3:20pm 290 4 G 9 81° 35% - - 51° 87.8° 59.3° - - -
5/23 3:10pm 273 4 G 8 79° 40% - - 53° 87.8° 59.3° - - -
5/23 3:00pm 279 5 G 9 79° 42% - - 54° 87.8° 59.3° - - -
5/23 2:50pm 287 5 G 11 79° 42% - - 54° 87.8° 59.3° - - -
5/23 2:40pm 276 5 G 9 79° 43% - - 54° 87.8° 59.3° - - -
5/23 2:30pm 279 5 G 10 79° 43% - - 54° 87.8° 59.3° - - -
5/23 2:20pm 268 4 G 8 79° 43% - - 55° 87.8° 59.3° - - -
5/23 2:10pm 242 4 G 8 79° 44% - - 55° 87.8° 59.3° - - -
5/23 2:00pm 256 5 G 10 79° 43% - - 55° 87.8° 59.3° - - -
5/23 1:50pm 244 4 G 9 80° 42% - - 55° 87.8° 59.3° - - -
5/23 1:40pm 249 4 G 10 80° 42% - - 55° 87.8° 59.3° - - -
5/23 1:30pm 242 4 G 9 80° 41% - - 55° 87.8° 59.3° - - -
5/23 1:20pm 252 4 G 9 80° 41% - - 54° 87.8° 59.3° - - -
5/23 1:10pm 248 4 G 7 80° 42% - - 55° 87.8° 59.3° - - -
5/23 1:00pm 254 4 G 8 80° 42% - - 55° 87.8° 59.3° - - -
5/23 12:50pm 244 4 G 10 80° 40% - - 54° 87.8° 59.3° - - -
5/23 12:40pm 258 5 G 11 82° 37% - - 53° 87.8° 59.3° - - -
5/23 12:30pm 269 5 G 12 82° 36% - - 53° 87.8° 59.3° - - -
5/23 12:20pm 265 5 G 11 85° 31% - - 50° 87.8° 59.3° - - -
5/23 12:10pm 292 4 G 9 86° 21% - - 41° 87.8° 59.3° - - -
5/23 12:00pm 281 5 G 10 86° 21% - - 41° 87.8° 59.3° - - -
5/23 11:50am 275 5 G 11 85° 23% - - 43° 87.8° 59.3° - - -
5/23 11:40am 263 4 G 9 86° 24% - - 45° 87.8° 59.3° - - -
5/23 11:30am 257 4 G 10 86° 24% - - 44° 87.8° 59.3° - - -
5/23 11:20am 269 4 G 10 87° 20% - - 41° 87.8° 59.3° - - -
5/23 11:10am 286 4 G 9 87° 18% - - 38° 87.8° 59.3° - - -
5/23 11:00am 291 4 G 7 87° 18% - - 38° 87.6° 59.3° - - -
5/23 10:50am 288 3 G 7 87° 19% - - 40° 87.6° 59.3° - - -
5/23 10:40am 292 3 G 6 86° 19% - - 39° 86.6° 59.3° - - -
5/23 10:30am 293 3 G 6 86° 19% - - 39° 86.3° 59.3° - - -
5/23 10:20am 333 2 G 5 86° 19% - - 39° 86.3° 59.3° - - -
5/23 10:10am 294 2 G 5 85° 19% - - 39° 86° 59.3° - - -
5/23 10:00am 283 2 G 4 85° 18% - - 36° 86° 59.3° - - -
5/23 9:50am 181 1 G 4 85° 17% - - 35° 85.9° 59.3° - - -
5/23 9:40am 1 1 G 2 85° 17% - - 35° 85.5° 59.3° - - -
5/23 9:30am 286 1 G 3 83° 17% - - 34° 83.8° 59.3° - - -
5/23 9:20am 177 1 G 3 83° 18% - - 35° 83.1° 59.3° - - -
5/23 9:10am 243 1 G 3 82° 18% - - 35° 82.8° 59.3° - - -
5/23 9:00am 226 1 G 4 81° 18% - - 34° 81.8° 59.3° - - -
5/23 8:50am 106 2 G 4 80° 18% - - 33° 81.3° 59.3° - - -
5/23 8:40am 94 2 G 4 79° 18% - - 32° 79.7° 59.3° - - -
5/23 8:30am 82 3 G 5 79° 20% - - 34° 79.3° 59.3° - - -
5/23 8:20am 58 1 G 4 78° 26% - - 40° 79.2° 59.3° - - -
5/23 8:10am 351 0 G 1 76° 31% - - 43° 76.5° 59.3° - - -
5/23 8:00am 80 1 G 2 73° 35% - - 44° 74.8° 59.3° - - -
5/23 7:50am 137 1 G 2 72° 32% - - 41° 73.3° 59.3° - - -
5/23 7:40am 119 0 G 0 73° 36% - - 44° 73.3° 59.3° - - -
5/23 7:30am 102 0 G 1 71° 36% - - 43° 72.2° 59.3° - - -
5/23 7:20am 97 0 G 1 70° 35% - - 41° 71.8° 59.3° - - -
5/23 7:10am 0 0 G 0 69° 38% - - 42° 69.6° 59.3° - - -
5/23 7:00am 342 0 G 0 69° 35% - - 40° 69.6° 59.3° - - -
5/23 6:50am 319 0 G 1 68° 35% - - 39° 68.7° 59.3° - - -
5/23 6:40am 53 0 G 1 67° 35% - - 38° 68.5° 59.3° - - -
5/23 6:30am 0 0 G 0 64° 38% - - 38° 65.5° 59.3° - - -
5/23 6:20am 51 0 G 0 61° 42% - - 38° 63.8° 59.3° - - -
5/23 6:10am 79 0 G 2 60° 43% - - 37° 63.8° 59.3° - - -
5/23 6:00am 0 0 G 0 60° 43% - - 37° 63.8° 59.3° - - -